Curtin, Australia
Current Conditions -  °F | °C
As of 2:30 AM on Saturday 01 Nov 2014 (Local Time) from YCIN Reporting Station
Clear Clear  
Wind Chill: 79°   Ceiling: Unl
Heat Index: 83°   Visibility: NA
Dew Point: 77°   Wind: 6mph
Humidity: 94%   Direction: 310°NW
Pressure: 29.68"   Gusts: NA
Location:  17.58°S, 123.83°E
Report Text: YCIN 311830Z AUTO 31005KT 260V330 //// // NCD 26/25 Q1005
Loading
Personal Weather Stations






























Interactive Weather Map
Tropical Storm Tracking
New forecast layout! Learn more

10-Day Weather Forecast

Advertisements
Track Severe Weather on mobile